This is the latest recevied weather packets stored in our database for station/object KN6CRX. If no packets are shown the sender has not sent any weather packets the latest 10 day(s).
| Time | Temp. | Humidity | Pressure | Rain* | Wind** | Luminosity | Snow |
|---|---|---|---|---|---|---|---|
| 1787520808 | 32.78° C | 24% | 1019.8 hPa | 0 mm | - | 770 W/m² | - |
| 1787378182 | 23.33° C | 47% | 1023 hPa | 0 mm | - | 0 W/m² | - |
| 1787377877 | 23.33° C | 47% | 1023 hPa | 0 mm | - | 0 W/m² | - |
| 1787377576 | 23.33° C | 47% | 1023 hPa | 0 mm | - | 0 W/m² | - |
| 1787377275 | 23.33° C | 45% | 1022.9 hPa | 0 mm | - | 0 W/m² | - |
| 1787376971 | 23.33° C | 45% | 1023 hPa | 0 mm | - | 0 W/m² | - |
| 1787376668 | 23.89° C | 45% | 1023 hPa | 0 mm | - | 0 W/m² | - |
| 1787376363 | 23.89° C | 45% | 1023 hPa | 0 mm | - | 0 W/m² | - |
| 1787376058 | 23.89° C | 45% | 1023.2 hPa | 0 mm | - | 0 W/m² | - |
| 1787375754 | 24.44° C | 43% | 1022.9 hPa | 0 mm | - | 0 W/m² | - |
| 1787375449 | 25° C | 42% | 1023.1 hPa | 0 mm | - | 0 W/m² | - |
| 1787375144 | 25° C | 41% | 1022.9 hPa | 0 mm | - | 0 W/m² | - |
| 1787374799 | 25.56° C | 38% | 1022.9 hPa | 0 mm | - | 0 W/m² | - |
| 1787374496 | 25.56° C | 38% | 1022.9 hPa | 0 mm | - | 0 W/m² | - |
| 1787374191 | 25.56° C | 37% | 1022.6 hPa | 0 mm | - | 0 W/m² | - |
| 1787373887 | 25.56° C | 37% | 1022.6 hPa | 0 mm | - | 0 W/m² | - |
| 1787373585 | 25.56° C | 38% | 1022.8 hPa | 0 mm | - | 0 W/m² | - |
| 1787373281 | 25.56° C | 37% | 1022.5 hPa | 0 mm | - | 0 W/m² | - |
| 1787372977 | 25.56° C | 38% | 1022.6 hPa | 0 mm | - | 0 W/m² | - |
| 1787372672 | 25.56° C | 38% | 1022.6 hPa | 0 mm | - | 0 W/m² | - |
| 1787372368 | 25.56° C | 38% | 1022.9 hPa | 0 mm | - | 0 W/m² | - |
| 1787372064 | 25.56° C | 38% | 1022.9 hPa | 0 mm | - | 0 W/m² | - |
| 1787371761 | 25° C | 39% | 1022.6 hPa | 0 mm | - | 0 W/m² | - |
| 1787371461 | 25° C | 40% | 1023.2 hPa | 0 mm | - | 0 W/m² | - |
| 1787371156 | 25° C | 40% | 1023 hPa | 0 mm | - | 0 W/m² | - |
* Rain latest hour (hover to see other rain measurements)
** Current wind speed in m/s (hover to see current wind gust speed)